Ashland, Illinois
Current Conditions -  °F | °C
As of 10:35 AM on Friday 28 Nov 2014 (Local Time) from KIJX Reporting Station
Clear Clear  
Wind Chill: 26°   Ceiling: Unl
Heat Index: 36°   Visibility: 10mi
Dew Point: 28°   Wind: 16mph
Humidity: 75%   Direction: 170°S
Pressure: 30.12"   Gusts: NA
Location:  39.89°N, 90.01°W
Report Text: KIJX 281635Z AUTO 17014KT 10SM CLR 02/M02 A3012 RMK AO2 T00201020
Loading
Personal Weather Stations






























Interactive Weather Map New forecast layout! Learn more

10-Day Weather Forecast

Advertisements
Track Severe Weather on mobile